首页
METAR-TAF:

METAR-TAF

机场 :

Wiarton, 安大略省, 加拿大

纬度: 44-45N, 经度: 081-06W, 海拔: 222米

当前天气观测

该预报发布于43分钟前的11:00 UTC
风速4节,风向北转东北,在北转西北东北之间变化
温度 14°C
湿度 100%
气压 1005 hPa
能見度: 6.4公里
阴天层高于300英尺
小雨, 轻雾

METAR: CYVV 201100Z 03004KT 340V050 4SM -RA BR OVC003 14/14 A2967 RMK SF8 VIS W - N 1 SLP049 DENSITY ALT 1200FT

时间: 07:43 (11:43 UTC)

预报

该预报发布于1小时和5分钟前的10:38 UTC
预报有效从20日的 11点(UTC)到 20日的 23点(UTC)
风速6节,风向北转东北
能見度: 1.6公里
多云层高于800英尺
阴天层高于2000英尺
小雨, 轻雾
短暂存在
从 20日的 11点(UTC)到 20日的 14点(UTC)
能見度: 4.8公里
散云层高于800英尺
阴天层高于2000英尺
小雨, 轻雾
从 20日的 1400点(UTC)
风速10节,风向北转东北
能見度: 10公里
散云层高于600英尺
阴天层高于2000英尺
短暂存在
从 20日的 14点(UTC)到 20日的 16点(UTC)
能見度: 8.0公里
多云层高于600英尺
阴天层高于2000英尺
小雨, 轻雾
从 20日的 1600点(UTC)
风速10节,风向北转东北
能見度: 10公里
散云层高于2000英尺
短暂存在
从 20日的 16点(UTC)到 20日的 18点(UTC)
多云层高于2000英尺
从 20日的 1800点(UTC)
风速12节,风向北转东北
能見度: 10公里
散云层高于3000英尺
多云层高于15000英尺

TAF: CYVV 201038Z 2011/2023 03006KT 1SM -RA BR BKN008 OVC020 TEMPO 2011/2014 3SM -RA BR SCT008 OVC020 FM201400 03010KT P6SM SCT006 OVC020 TEMPO 2014/2016 5SM -RA BR BKN006 OVC020 FM201600 02010KT P6SM SCT020 TEMPO 2016/2018 BKN020 FM201800 02012KT P6SM SCT030 BKN150 RMK NXT FCST BY 201400Z

超过4000个机场的气象观测和天气预报(METAR&TAF报告)。

可查询的气象台以黄色和红色小点在地图上表示。

将鼠标移到小点上方,可查看气象台名称。

然后点击查看天气观测和预报。

如需切换地图:点击带黑十字的绿色按钮放大地图;点击带横线的绿色按钮缩小地图;或者点击绿色箭头查看邻近地区的地图。


METAR-TAF: